createdAt,value
2023-01-21T00:02:57.957Z,0.90
2023-01-21T00:08:01.806Z,0.90
2023-01-21T00:13:04.356Z,0.91
2023-01-21T00:18:08.123Z,0.90
2023-01-21T00:23:10.988Z,0.90
2023-01-21T00:28:13.513Z,0.91
2023-01-21T00:33:15.000Z,0.94
2023-01-21T00:38:16.610Z,0.96
2023-01-21T00:43:18.108Z,0.94
2023-01-21T00:48:20.188Z,0.94
2023-01-21T00:53:24.910Z,0.91
2023-01-21T00:58:27.035Z,0.86
2023-01-21T01:03:29.256Z,0.73
2023-01-21T01:08:31.326Z,0.60
2023-01-21T01:13:35.096Z,0.45
2023-01-21T01:18:37.904Z,0.32
2023-01-21T01:23:39.590Z,0.24
2023-01-21T01:28:41.120Z,0.19
2023-01-21T01:33:43.062Z,0.13
2023-01-21T01:38:44.916Z,0.10
2023-01-21T01:44:26.128Z,0.05
2023-01-21T01:49:27.616Z,0.04
2023-01-21T01:54:36.495Z,0.02
2023-01-21T01:59:39.523Z,-0.02
2023-01-21T02:04:53.047Z,-0.05
2023-01-21T02:09:55.277Z,-0.05
2023-01-21T02:14:56.848Z,-0.06
2023-01-21T02:20:20.053Z,-0.06
2023-01-21T02:26:00.394Z,-0.06
2023-01-21T02:31:26.596Z,-0.05
2023-01-21T02:36:43.498Z,-0.05
2023-01-21T02:41:48.305Z,-0.03
2023-01-21T02:46:49.796Z,-0.04
2023-01-21T02:51:51.348Z,-0.07
2023-01-21T02:56:52.868Z,-0.09
2023-01-21T03:02:01.324Z,-0.11
2023-01-21T03:07:32.881Z,-0.11
2023-01-21T03:12:45.086Z,-0.12
2023-01-21T03:17:53.431Z,-0.14
2023-01-21T03:23:04.981Z,-0.15
2023-01-21T03:28:12.955Z,-0.14
2023-01-21T03:33:18.503Z,-0.14
2023-01-21T03:38:35.860Z,-0.14
2023-01-21T03:43:38.661Z,-0.14
2023-01-21T03:48:55.563Z,-0.12
2023-01-21T03:53:58.898Z,-0.10
2023-01-21T03:59:00.394Z,-0.09
2023-01-21T04:04:01.920Z,-0.08
2023-01-21T04:09:05.244Z,-0.07
2023-01-21T04:14:07.144Z,-0.06
2023-01-21T04:19:08.870Z,-0.04
2023-01-21T04:24:10.482Z,-0.04
2023-01-21T04:29:12.142Z,-0.04
2023-01-21T04:34:14.261Z,-0.03
2023-01-21T04:39:15.862Z,-0.03
2023-01-21T04:44:17.346Z,-0.02
2023-01-21T04:49:18.850Z,-0.04
2023-01-21T04:54:20.321Z,-0.02
2023-01-21T04:59:22.267Z,-0.01
2023-01-21T05:04:23.767Z,-0.01
2023-01-21T05:09:25.603Z,-0.01
2023-01-21T05:14:27.155Z,-0.02
2023-01-21T05:19:28.635Z,-0.02
2023-01-21T05:24:31.453Z,0.00
2023-01-21T05:29:32.944Z,0.04
2023-01-21T05:34:34.475Z,0.05
2023-01-21T05:39:36.148Z,0.06
2023-01-21T05:44:37.701Z,0.06
2023-01-21T05:49:39.556Z,0.06
2023-01-21T05:54:52.533Z,0.07
2023-01-21T06:00:02.131Z,0.07
2023-01-21T06:05:03.792Z,0.08
2023-01-21T06:10:06.319Z,0.10
2023-01-21T06:15:08.348Z,0.10
2023-01-21T06:20:13.523Z,0.10
2023-01-21T06:25:15.072Z,0.07
2023-01-21T06:30:17.013Z,0.08
2023-01-21T06:35:19.418Z,0.11
2023-01-21T06:40:21.449Z,0.14
2023-01-21T06:45:23.105Z,0.14
2023-01-21T06:50:24.902Z,0.16
2023-01-21T06:55:26.415Z,0.16
2023-01-21T07:00:28.356Z,0.15
2023-01-21T07:05:30.222Z,0.12
2023-01-21T07:10:32.312Z,0.13
2023-01-21T07:15:34.075Z,0.13
2023-01-21T07:20:35.894Z,0.14
2023-01-21T07:25:38.289Z,0.17
2023-01-21T07:30:39.875Z,0.23
2023-01-21T07:35:41.508Z,0.29
2023-01-21T07:40:43.071Z,0.31
2023-01-21T07:45:44.932Z,0.36
2023-01-21T07:50:46.471Z,0.39
2023-01-21T07:55:48.402Z,0.45
2023-01-21T08:00:49.982Z,0.47
2023-01-21T08:05:52.660Z,0.51
2023-01-21T08:10:55.780Z,0.54
2023-01-21T08:15:57.600Z,0.59
2023-01-21T08:21:00.669Z,0.63
2023-01-21T08:26:04.258Z,0.66
2023-01-21T08:31:11.965Z,0.65
2023-01-21T08:36:14.022Z,0.68
2023-01-21T08:41:16.621Z,0.73
2023-01-21T08:46:18.315Z,0.77
2023-01-21T08:51:19.971Z,0.81
2023-01-21T08:56:21.534Z,0.82
2023-01-21T09:01:24.879Z,0.84
2023-01-21T09:06:28.790Z,0.86
2023-01-21T09:11:30.758Z,0.88
2023-01-21T09:16:32.576Z,0.91
2023-01-21T09:21:34.969Z,0.92
2023-01-21T09:26:36.514Z,0.96
2023-01-21T09:31:38.867Z,1.02
2023-01-21T09:36:40.611Z,1.11
2023-01-21T09:41:53.295Z,1.08
2023-01-21T09:47:11.730Z,1.10
2023-01-21T09:52:52.372Z,1.13
2023-01-21T09:58:16.492Z,1.10
2023-01-21T10:03:27.934Z,1.10
2023-01-21T10:08:51.090Z,1.10
2023-01-21T10:14:26.809Z,1.15
2023-01-21T10:19:55.840Z,1.18
2023-01-21T10:25:15.523Z,1.23
2023-01-21T10:30:44.771Z,1.24
2023-01-21T10:36:14.564Z,1.23
2023-01-21T10:42:15.093Z,1.24
2023-01-21T10:47:55.764Z,1.22
2023-01-21T10:53:38.728Z,1.22
2023-01-21T10:58:55.865Z,1.37
2023-01-21T11:04:15.313Z,1.50
2023-01-21T11:09:16.987Z,1.54
2023-01-21T11:14:21.159Z,1.52
2023-01-21T11:19:24.778Z,1.50
2023-01-21T11:24:27.528Z,1.44
2023-01-21T11:29:46.930Z,1.40
2023-01-21T11:35:01.310Z,1.41
2023-01-21T11:40:14.952Z,1.43
2023-01-21T11:45:38.070Z,1.42
2023-01-21T11:50:39.618Z,1.44
2023-01-21T11:55:45.741Z,1.47
2023-01-21T12:00:50.787Z,1.53
2023-01-21T12:05:53.928Z,1.57
2023-01-21T12:10:58.728Z,1.54
2023-01-21T12:16:25.387Z,1.51
2023-01-21T12:21:46.807Z,1.53
2023-01-21T12:27:15.100Z,1.55
2023-01-21T12:32:23.765Z,1.60
2023-01-21T12:37:51.632Z,1.65
2023-01-21T12:42:58.519Z,1.74
2023-01-21T12:48:12.845Z,1.76
2023-01-21T12:53:32.188Z,1.76
2023-01-21T12:58:40.744Z,1.74
2023-01-21T13:03:55.207Z,1.74
2023-01-21T13:09:03.452Z,1.70
2023-01-21T13:14:08.049Z,1.69
2023-01-21T13:19:14.488Z,1.72
2023-01-21T13:24:25.425Z,1.72
2023-01-21T13:29:47.264Z,1.73
2023-01-21T13:35:06.760Z,1.72
2023-01-21T13:40:46.102Z,1.71
2023-01-21T13:46:02.473Z,1.73
2023-01-21T13:51:29.203Z,1.71
2023-01-21T13:56:46.463Z,1.73
2023-01-21T14:02:05.603Z,1.69
2023-01-21T14:07:22.880Z,1.68
2023-01-21T14:13:04.908Z,1.71
2023-01-21T14:18:53.836Z,1.72
2023-01-21T14:24:15.178Z,1.73
2023-01-21T14:29:29.932Z,1.76
2023-01-21T14:34:51.290Z,1.76
2023-01-21T14:39:55.970Z,1.77
2023-01-21T14:45:06.115Z,1.77
2023-01-21T14:50:10.056Z,1.77
2023-01-21T14:55:29.432Z,1.76
2023-01-21T15:00:35.248Z,1.80
2023-01-21T15:05:37.372Z,1.80
2023-01-21T15:10:41.067Z,1.82
2023-01-21T15:16:02.525Z,1.83
2023-01-21T15:21:30.110Z,1.81
2023-01-21T15:26:33.184Z,1.83
2023-01-21T15:31:44.848Z,1.84
2023-01-21T15:36:57.275Z,1.85
2023-01-21T15:42:44.015Z,1.85
2023-01-21T15:48:00.082Z,1.81
2023-01-21T15:53:33.237Z,1.79
2023-01-21T15:59:12.152Z,1.81
2023-01-21T16:04:32.920Z,1.79
2023-01-21T16:10:10.137Z,1.78
2023-01-21T16:15:39.089Z,1.81
2023-01-21T16:20:51.305Z,1.82
2023-01-21T16:25:53.484Z,1.81
2023-01-21T16:30:57.936Z,1.82
2023-01-21T16:36:07.175Z,1.84
2023-01-21T16:41:08.664Z,1.84
2023-01-21T16:46:18.667Z,1.82
2023-01-21T16:51:28.719Z,1.83
2023-01-21T16:56:30.748Z,1.81
2023-01-21T17:01:32.874Z,1.82
2023-01-21T17:06:34.787Z,1.81
2023-01-21T17:11:36.748Z,1.80
2023-01-21T17:16:40.891Z,1.81
2023-01-21T17:21:50.016Z,1.84
2023-01-21T17:27:00.683Z,1.84
2023-01-21T17:32:06.632Z,1.84
2023-01-21T17:37:47.668Z,1.86
2023-01-21T17:42:49.248Z,1.86
2023-01-21T17:48:12.607Z,1.87
2023-01-21T17:53:23.043Z,1.88
2023-01-21T17:58:43.253Z,1.90
2023-01-21T18:03:45.243Z,1.87
2023-01-21T18:08:47.096Z,1.89
2023-01-21T18:13:50.079Z,1.89
2023-01-21T18:18:54.182Z,1.89
2023-01-21T18:23:55.857Z,1.88
2023-01-21T18:28:57.487Z,1.90
2023-01-21T18:33:58.984Z,1.90
2023-01-21T18:39:00.498Z,1.90
2023-01-21T18:44:02.043Z,1.88
2023-01-21T18:49:05.905Z,1.85
2023-01-21T18:54:07.857Z,1.85
2023-01-21T18:59:18.675Z,1.86
2023-01-21T19:04:23.125Z,1.85
2023-01-21T19:09:25.908Z,1.84
2023-01-21T19:14:27.415Z,1.84
2023-01-21T19:19:29.332Z,1.82
2023-01-21T19:24:30.871Z,1.80
2023-01-21T19:29:32.821Z,1.79
2023-01-21T19:34:34.395Z,1.79
2023-01-21T19:39:35.966Z,1.81
2023-01-21T19:44:39.478Z,1.80
2023-01-21T19:49:41.008Z,1.79
2023-01-21T19:54:42.554Z,1.78
2023-01-21T19:59:45.699Z,1.79
2023-01-21T20:04:47.370Z,1.80
2023-01-21T20:09:49.562Z,1.82
2023-01-21T20:14:51.527Z,1.80
2023-01-21T20:19:53.476Z,1.77
2023-01-21T20:24:54.958Z,1.76
2023-01-21T20:30:14.953Z,1.75
2023-01-21T20:35:18.369Z,1.74
2023-01-21T20:40:24.321Z,1.74
2023-01-21T20:45:37.713Z,1.77
2023-01-21T20:50:39.352Z,1.79
2023-01-21T20:55:57.577Z,1.80
2023-01-21T21:01:03.064Z,1.78
2023-01-21T21:06:21.369Z,1.78
2023-01-21T21:11:29.452Z,1.76
2023-01-21T21:16:36.319Z,1.73
2023-01-21T21:21:38.343Z,1.73
2023-01-21T21:26:41.033Z,1.72
2023-01-21T21:31:43.099Z,1.70
2023-01-21T21:36:45.236Z,1.72
2023-01-21T21:42:05.573Z,1.71
2023-01-21T21:47:45.415Z,1.71
2023-01-21T21:52:47.462Z,1.72
2023-01-21T21:57:49.133Z,1.73
2023-01-21T22:02:54.031Z,1.72
2023-01-21T22:07:56.151Z,1.72
2023-01-21T22:12:57.744Z,1.73
2023-01-21T22:17:59.229Z,1.72
2023-01-21T22:23:00.743Z,1.73
2023-01-21T22:28:02.279Z,1.70
2023-01-21T22:33:04.012Z,1.66
2023-01-21T22:38:06.726Z,1.67
2023-01-21T22:43:10.461Z,1.67
2023-01-21T22:48:12.006Z,1.70
2023-01-21T22:53:15.264Z,1.73
2023-01-21T22:58:16.760Z,1.71
2023-01-21T23:03:19.560Z,1.73
2023-01-21T23:08:22.493Z,1.74
2023-01-21T23:13:24.129Z,1.73
2023-01-21T23:18:27.801Z,1.74
2023-01-21T23:23:35.924Z,1.76
2023-01-21T23:28:38.268Z,1.73
2023-01-21T23:33:41.695Z,1.72
2023-01-21T23:38:43.752Z,1.73
2023-01-21T23:43:45.298Z,1.80
2023-01-21T23:48:55.737Z,1.83
2023-01-21T23:53:57.781Z,1.85
2023-01-21T23:58:59.287Z,1.89
